sensor_id;sensor_type;location;lat;lon;timestamp;pressure;altitude;pressure_sealevel;temperature;humidity
29535;BME280;72082;52.650;8.116;2024-02-04T00:01:24;101813.56;;;8.79;100.00
29535;BME280;72082;52.650;8.116;2024-02-04T00:03:49;101810.19;;;8.80;100.00
29535;BME280;72082;52.650;8.116;2024-02-04T00:06:14;101801.66;;;8.79;100.00
29535;BME280;72082;52.650;8.116;2024-02-04T00:08:40;101794.81;;;8.78;100.00
29535;BME280;72082;52.650;8.116;2024-02-04T00:11:05;101784.56;;;8.77;100.00
29535;BME280;72082;52.650;8.116;2024-02-04T00:13:30;101774.25;;;8.74;100.00
29535;BME280;72082;52.650;8.116;2024-02-04T00:15:56;101773.31;;;8.68;100.00
29535;BME280;72082;52.650;8.116;2024-02-04T00:18:21;101780.09;;;8.66;100.00
29535;BME280;72082;52.650;8.116;2024-02-04T00:20:46;101778.47;;;8.70;100.00
29535;BME280;72082;52.650;8.116;2024-02-04T00:23:11;101777.66;;;8.73;100.00
29535;BME280;72082;52.650;8.116;2024-02-04T00:25:36;101778.56;;;8.75;100.00
29535;BME280;72082;52.650;8.116;2024-02-04T00:28:02;101772.66;;;8.79;100.00
29535;BME280;72082;52.650;8.116;2024-02-04T00:30:27;101771.91;;;8.83;100.00
29535;BME280;72082;52.650;8.116;2024-02-04T00:32:52;101764.31;;;8.87;100.00
29535;BME280;72082;52.650;8.116;2024-02-04T00:35:18;101770.38;;;8.91;100.00
29535;BME280;72082;52.650;8.116;2024-02-04T00:37:43;101773.84;;;8.94;100.00
29535;BME280;72082;52.650;8.116;2024-02-04T00:40:09;101771.34;;;8.97;100.00
29535;BME280;72082;52.650;8.116;2024-02-04T00:42:34;101770.53;;;8.98;100.00
29535;BME280;72082;52.650;8.116;2024-02-04T00:44:59;101768.91;;;9.02;100.00
29535;BME280;72082;52.650;8.116;2024-02-04T00:47:24;101764.69;;;9.04;100.00
29535;BME280;72082;52.650;8.116;2024-02-04T00:49:50;101765.56;;;9.06;100.00
29535;BME280;72082;52.650;8.116;2024-02-04T00:52:15;101760.44;;;9.06;100.00
29535;BME280;72082;52.650;8.116;2024-02-04T00:54:40;101757.88;;;9.06;100.00
29535;BME280;72082;52.650;8.116;2024-02-04T00:57:05;101759.63;;;9.07;100.00
29535;BME280;72082;52.650;8.116;2024-02-04T00:59:30;101756.19;;;9.06;100.00
29535;BME280;72082;52.650;8.116;2024-02-04T01:01:56;101759.63;;;9.07;100.00
29535;BME280;72082;52.650;8.116;2024-02-04T01:04:21;101762.19;;;9.07;100.00
29535;BME280;72082;52.650;8.116;2024-02-04T01:06:46;101767.31;;;9.08;100.00
29535;BME280;72082;52.650;8.116;2024-02-04T01:09:11;101763.88;;;9.06;100.00
29535;BME280;72082;52.650;8.116;2024-02-04T01:11:36;101770.66;;;9.04;100.00
29535;BME280;72082;52.650;8.116;2024-02-04T01:14:02;101778.25;;;9.01;100.00
29535;BME280;72082;52.650;8.116;2024-02-04T01:16:27;101774.00;;;9.02;100.00
29535;BME280;72082;52.650;8.116;2024-02-04T01:18:52;101777.38;;;9.01;100.00
29535;BME280;72082;52.650;8.116;2024-02-04T01:21:17;101771.50;;;9.05;100.00
29535;BME280;72082;52.650;8.116;2024-02-04T01:23:42;101792.00;;;9.08;100.00
29535;BME280;72082;52.650;8.116;2024-02-04T01:26:08;101769.00;;;9.08;100.00
29535;BME280;72082;52.650;8.116;2024-02-04T01:28:33;101770.69;;;9.07;100.00
29535;BME280;72082;52.650;8.116;2024-02-04T01:30:58;101768.13;;;9.06;100.00
29535;BME280;72082;52.650;8.116;2024-02-04T01:33:23;101766.34;;;9.02;100.00
29535;BME280;72082;52.650;8.116;2024-02-04T01:35:48;101762.88;;;9.00;100.00
29535;BME280;72082;52.650;8.116;2024-02-04T01:38:14;101756.88;;;8.98;100.00
29535;BME280;72082;52.650;8.116;2024-02-04T01:40:39;101755.16;;;8.97;100.00
29535;BME280;72082;52.650;8.116;2024-02-04T01:43:04;101749.94;;;8.92;100.00
29535;BME280;72082;52.650;8.116;2024-02-04T01:45:29;101750.72;;;8.88;100.00
29535;BME280;72082;52.650;8.116;2024-02-04T01:47:55;101752.34;;;8.85;100.00
29535;BME280;72082;52.650;8.116;2024-02-04T01:50:21;101744.59;;;8.80;100.00
29535;BME280;72082;52.650;8.116;2024-02-04T01:52:47;101741.97;;;8.76;100.00
29535;BME280;72082;52.650;8.116;2024-02-04T01:55:13;101734.22;;;8.73;100.00
29535;BME280;72082;52.650;8.116;2024-02-04T01:57:39;101734.97;;;8.68;100.00
29535;BME280;72082;52.650;8.116;2024-02-04T02:00:05;101732.38;;;8.65;100.00
29535;BME280;72082;52.650;8.116;2024-02-04T02:02:31;101724.59;;;8.59;100.00
29535;BME280;72082;52.650;8.116;2024-02-04T02:04:57;101728.75;;;8.54;100.00
29535;BME280;72082;52.650;8.116;2024-02-04T02:07:23;101732.97;;;8.52;100.00
29535;BME280;72082;52.650;8.116;2024-02-04T02:09:48;101743.09;;;8.49;100.00
29535;BME280;72082;52.650;8.116;2024-02-04T02:12:18;101739.63;;;8.46;100.00
29535;BME280;72082;52.650;8.116;2024-02-04T02:14:47;101731.00;;;8.42;100.00
29535;BME280;72082;52.650;8.116;2024-02-04T02:17:15;101731.00;;;8.41;100.00
29535;BME280;72082;52.650;8.116;2024-02-04T02:19:51;101730.19;;;8.42;100.00
29535;BME280;72082;52.650;8.116;2024-02-04T02:22:26;101716.53;;;8.41;100.00
29535;BME280;72082;52.650;8.116;2024-02-04T02:24:55;101714.78;;;8.39;100.00
29535;BME280;72082;52.650;8.116;2024-02-04T02:27:21;101709.59;;;8.36;100.00
29535;BME280;72082;52.650;8.116;2024-02-04T02:29:46;101706.19;;;8.35;100.00
29535;BME280;72082;52.650;8.116;2024-02-04T02:32:11;101712.09;;;8.34;100.00
29535;BME280;72082;52.650;8.116;2024-02-04T02:34:37;101721.56;;;8.37;100.00
29535;BME280;72082;52.650;8.116;2024-02-04T02:39:45;101720.00;;;8.45;100.00
29535;BME280;72082;52.650;8.116;2024-02-04T02:42:11;101713.28;;;8.50;100.00
29535;BME280;72082;52.650;8.116;2024-02-04T02:44:38;101710.84;;;8.54;100.00
29535;BME280;72082;52.650;8.116;2024-02-04T02:47:05;101707.50;;;8.57;100.00
29535;BME280;72082;52.650;8.116;2024-02-04T02:49:30;101707.47;;;8.55;100.00
29535;BME280;72082;52.650;8.116;2024-02-04T02:51:55;101701.44;;;8.52;100.00
29535;BME280;72082;52.650;8.116;2024-02-04T02:54:21;101700.44;;;8.45;100.00
29535;BME280;72082;52.650;8.116;2024-02-04T02:56:46;101694.38;;;8.40;100.00
29535;BME280;72082;52.650;8.116;2024-02-04T02:59:11;101697.72;;;8.36;100.00
29535;BME280;72082;52.650;8.116;2024-02-04T03:01:39;101701.06;;;8.35;100.00
29535;BME280;72082;52.650;8.116;2024-02-04T03:04:04;101709.53;;;8.33;100.00
29535;BME280;72082;52.650;8.116;2024-02-04T03:06:29;101702.69;;;8.32;100.00
29535;BME280;72082;52.650;8.116;2024-02-04T03:08:55;101695.88;;;8.31;100.00
29535;BME280;72082;52.650;8.116;2024-02-04T03:11:20;101706.97;;;8.33;100.00
29535;BME280;72082;52.650;8.116;2024-02-04T03:13:45;101702.75;;;8.35;100.00
29535;BME280;72082;52.650;8.116;2024-02-04T03:16:13;101692.63;;;8.38;100.00
29535;BME280;72082;52.650;8.116;2024-02-04T03:18:40;101705.44;;;8.39;100.00
29535;BME280;72082;52.650;8.116;2024-02-04T03:21:14;101700.28;;;8.38;100.00
29535;BME280;72082;52.650;8.116;2024-02-04T03:23:44;101688.31;;;8.35;100.00
29535;BME280;72082;52.650;8.116;2024-02-04T03:26:10;101680.59;;;8.32;100.00
29535;BME280;72082;52.650;8.116;2024-02-04T03:28:36;101689.03;;;8.28;100.00
29535;BME280;72082;52.650;8.116;2024-02-04T03:31:01;101685.59;;;8.28;100.00
29535;BME280;72082;52.650;8.116;2024-02-04T03:33:26;101692.28;;;8.24;100.00
29535;BME280;72082;52.650;8.116;2024-02-04T03:35:51;101686.28;;;8.22;100.00
29535;BME280;72082;52.650;8.116;2024-02-04T03:38:17;101672.56;;;8.17;100.00
29535;BME280;72082;52.650;8.116;2024-02-04T03:40:42;101686.13;;;8.13;100.00
29535;BME280;72082;52.650;8.116;2024-02-04T03:43:07;101700.50;;;8.09;100.00
29535;BME280;72082;52.650;8.116;2024-02-04T03:45:32;101693.63;;;8.07;100.00
29535;BME280;72082;52.650;8.116;2024-02-04T03:47:58;101697.84;;;8.05;100.00
29535;BME280;72082;52.650;8.116;2024-02-04T03:50:23;101675.69;;;8.04;100.00
29535;BME280;72082;52.650;8.116;2024-02-04T03:52:48;101679.06;;;8.03;100.00
29535;BME280;72082;52.650;8.116;2024-02-04T03:55:13;101675.59;;;8.01;100.00
29535;BME280;72082;52.650;8.116;2024-02-04T03:57:38;101680.63;;;7.98;100.00
29535;BME280;72082;52.650;8.116;2024-02-04T04:00:04;101680.59;;;7.95;100.00
29535;BME280;72082;52.650;8.116;2024-02-04T04:02:29;101679.69;;;7.93;100.00
29535;BME280;72082;52.650;8.116;2024-02-04T04:04:55;101691.56;;;7.91;100.00
29535;BME280;72082;52.650;8.116;2024-02-04T04:07:20;101688.19;;;7.92;100.00
29535;BME280;72082;52.650;8.116;2024-02-04T04:09:45;101684.00;;;7.95;100.00
29535;BME280;72082;52.650;8.116;2024-02-04T04:12:10;101692.59;;;7.99;100.00
29535;BME280;72082;52.650;8.116;2024-02-04T04:14:35;101693.47;;;8.01;100.00
29535;BME280;72082;52.650;8.116;2024-02-04T04:17:01;101679.06;;;8.03;100.00
29535;BME280;72082;52.650;8.116;2024-02-04T04:19:26;101692.72;;;8.05;100.00
29535;BME280;72082;52.650;8.116;2024-02-04T04:21:51;101691.06;;;8.07;100.00
29535;BME280;72082;52.650;8.116;2024-02-04T04:24:16;101699.63;;;8.09;100.00
29535;BME280;72082;52.650;8.116;2024-02-04T04:26:42;101703.91;;;8.10;100.00
29535;BME280;72082;52.650;8.116;2024-02-04T04:29:07;101696.25;;;8.10;100.00
29535;BME280;72082;52.650;8.116;2024-02-04T04:31:32;101704.78;;;8.12;100.00
29535;BME280;72082;52.650;8.116;2024-02-04T04:33:57;101688.66;;;8.13;100.00
29535;BME280;72082;52.650;8.116;2024-02-04T04:36:22;101677.50;;;8.08;100.00
29535;BME280;72082;52.650;8.116;2024-02-04T04:38:48;101682.53;;;8.05;100.00
29535;BME280;72082;52.650;8.116;2024-02-04T04:41:13;101679.00;;;8.00;100.00
29535;BME280;72082;52.650;8.116;2024-02-04T04:43:38;101682.34;;;7.97;100.00
29535;BME280;72082;52.650;8.116;2024-02-04T04:46:03;101678.88;;;7.94;100.00
29535;BME280;72082;52.650;8.116;2024-02-04T04:48:29;101677.09;;;7.90;100.00
29535;BME280;72082;52.650;8.116;2024-02-04T04:50:54;101682.94;;;7.86;100.00
29535;BME280;72082;52.650;8.116;2024-02-04T04:53:19;101686.28;;;7.83;100.00
29535;BME280;72082;52.650;8.116;2024-02-04T04:55:44;101692.25;;;7.84;100.00
29535;BME280;72082;52.650;8.116;2024-02-04T04:58:09;101707.63;;;7.87;100.00
29535;BME280;72082;52.650;8.116;2024-02-04T05:00:35;101696.66;;;7.91;100.00
29535;BME280;72082;52.650;8.116;2024-02-04T05:03:00;101691.63;;;7.94;100.00
29535;BME280;72082;52.650;8.116;2024-02-04T05:05:25;101690.00;;;7.97;100.00
29535;BME280;72082;52.650;8.116;2024-02-04T05:07:50;101684.94;;;7.99;100.00
29535;BME280;72082;52.650;8.116;2024-02-04T05:10:16;101679.81;;;7.99;100.00
29535;BME280;72082;52.650;8.116;2024-02-04T05:12:41;101678.94;;;7.97;100.00
29535;BME280;72082;52.650;8.116;2024-02-04T05:15:06;101672.09;;;7.96;100.00
29535;BME280;72082;52.650;8.116;2024-02-04T05:17:32;101680.59;;;7.95;100.00
29535;BME280;72082;52.650;8.116;2024-02-04T05:19:57;101683.97;;;7.94;100.00
29535;BME280;72082;52.650;8.116;2024-02-04T05:22:22;101682.22;;;7.93;100.00
29535;BME280;72082;52.650;8.116;2024-02-04T05:24:48;101665.22;;;7.92;100.00
29535;BME280;72082;52.650;8.116;2024-02-04T05:27:13;101670.31;;;7.92;100.00
29535;BME280;72082;52.650;8.116;2024-02-04T05:29:38;101666.91;;;7.91;100.00
29535;BME280;72082;52.650;8.116;2024-02-04T05:32:03;101671.97;;;7.90;100.00
29535;BME280;72082;52.650;8.116;2024-02-04T05:34:29;101659.97;;;7.87;100.00
29535;BME280;72082;52.650;8.116;2024-02-04T05:36:54;101665.06;;;7.86;100.00
29535;BME280;72082;52.650;8.116;2024-02-04T05:39:19;101668.44;;;7.85;100.00
29535;BME280;72082;52.650;8.116;2024-02-04T05:41:44;101665.88;;;7.85;100.00
29535;BME280;72082;52.650;8.116;2024-02-04T05:44:10;101654.78;;;7.83;100.00
29535;BME280;72082;52.650;8.116;2024-02-04T05:46:38;101650.47;;;7.80;100.00
29535;BME280;72082;52.650;8.116;2024-02-04T05:49:03;101637.69;;;7.79;100.00
29535;BME280;72082;52.650;8.116;2024-02-04T05:51:31;101637.69;;;7.79;100.00
29535;BME280;72082;52.650;8.116;2024-02-04T05:53:56;101641.06;;;7.78;100.00
29535;BME280;72082;52.650;8.116;2024-02-04T05:56:22;101629.97;;;7.76;100.00
29535;BME280;72082;52.650;8.116;2024-02-04T05:58:47;101620.59;;;7.75;100.00
29535;BME280;72082;52.650;8.116;2024-02-04T06:01:12;101621.38;;;7.72;100.00
29535;BME280;72082;52.650;8.116;2024-02-04T06:03:38;101618.81;;;7.71;100.00
29535;BME280;72082;52.650;8.116;2024-02-04T06:06:03;101611.97;;;7.70;100.00
29535;BME280;72082;52.650;8.116;2024-02-04T06:08:28;101616.19;;;7.69;100.00
29535;BME280;72082;52.650;8.116;2024-02-04T06:10:53;101628.16;;;7.70;100.00
29535;BME280;72082;52.650;8.116;2024-02-04T06:13:18;101636.66;;;7.71;100.00
29535;BME280;72082;52.650;8.116;2024-02-04T06:15:44;101626.47;;;7.72;100.00
29535;BME280;72082;52.650;8.116;2024-02-04T06:18:09;101617.16;;;7.73;100.00
29535;BME280;72082;52.650;8.116;2024-02-04T06:20:34;101619.78;;;7.76;100.00
29535;BME280;72082;52.650;8.116;2024-02-04T06:22:59;101615.53;;;7.76;100.00
29535;BME280;72082;52.650;8.116;2024-02-04T06:25:24;101630.84;;;7.76;100.00
29535;BME280;72082;52.650;8.116;2024-02-04T06:27:50;101615.56;;;7.78;100.00
29535;BME280;72082;52.650;8.116;2024-02-04T06:30:15;101612.22;;;7.80;100.00
29535;BME280;72082;52.650;8.116;2024-02-04T06:32:40;101609.66;;;7.80;100.00
29535;BME280;72082;52.650;8.116;2024-02-04T06:35:06;101610.53;;;7.82;100.00
29535;BME280;72082;52.650;8.116;2024-02-04T06:37:31;101616.50;;;7.83;100.00
29535;BME280;72082;52.650;8.116;2024-02-04T06:39:57;101605.41;;;7.81;100.00
29535;BME280;72082;52.650;8.116;2024-02-04T06:42:22;101598.66;;;7.83;100.00
29535;BME280;72082;52.650;8.116;2024-02-04T06:44:47;101591.84;;;7.82;100.00
29535;BME280;72082;52.650;8.116;2024-02-04T06:47:12;101608.00;;;7.82;100.00
29535;BME280;72082;52.650;8.116;2024-02-04T06:49:38;101609.72;;;7.82;100.00
29535;BME280;72082;52.650;8.116;2024-02-04T06:52:03;101591.00;;;7.83;100.00
29535;BME280;72082;52.650;8.116;2024-02-04T06:54:29;101618.25;;;7.84;100.00
29535;BME280;72082;52.650;8.116;2024-02-04T06:56:54;101623.38;;;7.85;100.00
29535;BME280;72082;52.650;8.116;2024-02-04T06:59:19;101593.63;;;7.86;100.00
29535;BME280;72082;52.650;8.116;2024-02-04T07:01:44;101609.81;;;7.88;100.00
29535;BME280;72082;52.650;8.116;2024-02-04T07:04:09;101608.13;;;7.88;100.00
29535;BME280;72082;52.650;8.116;2024-02-04T07:06:35;101593.69;;;7.89;100.00
29535;BME280;72082;52.650;8.116;2024-02-04T07:09:00;101605.63;;;7.90;100.00
29535;BME280;72082;52.650;8.116;2024-02-04T07:11:25;101578.47;;;7.92;100.00
29535;BME280;72082;52.650;8.116;2024-02-04T07:13:50;101592.91;;;7.93;100.00
29535;BME280;72082;52.650;8.116;2024-02-04T07:16:16;101590.38;;;7.93;100.00
29535;BME280;72082;52.650;8.116;2024-02-04T07:18:41;101580.16;;;7.93;100.00
29535;BME280;72082;52.650;8.116;2024-02-04T07:21:06;101596.34;;;7.93;100.00
29535;BME280;72082;52.650;8.116;2024-02-04T07:23:31;101593.84;;;7.95;100.00
29535;BME280;72082;52.650;8.116;2024-02-04T07:25:56;101581.97;;;7.97;100.00
29535;BME280;72082;52.650;8.116;2024-02-04T07:28:22;101595.59;;;7.97;100.00
29535;BME280;72082;52.650;8.116;2024-02-04T07:30:47;101597.28;;;7.97;100.00
29535;BME280;72082;52.650;8.116;2024-02-04T07:33:12;101590.50;;;7.99;100.00
29535;BME280;72082;52.650;8.116;2024-02-04T07:35:37;101580.28;;;7.99;100.00
29535;BME280;72082;52.650;8.116;2024-02-04T07:38:03;101583.72;;;7.99;100.00
29535;BME280;72082;52.650;8.116;2024-02-04T07:40:28;101582.88;;;8.00;100.00
29535;BME280;72082;52.650;8.116;2024-02-04T07:42:54;101583.72;;;8.01;100.00
29535;BME280;72082;52.650;8.116;2024-02-04T07:45:19;101576.06;;;8.01;100.00
29535;BME280;72082;52.650;8.116;2024-02-04T07:47:44;101583.72;;;8.01;100.00
29535;BME280;72082;52.650;8.116;2024-02-04T07:50:10;101566.75;;;8.01;100.00
29535;BME280;72082;52.650;8.116;2024-02-04T07:52:35;101559.06;;;8.01;100.00
29535;BME280;72082;52.650;8.116;2024-02-04T07:55:00;101559.94;;;8.02;100.00
29535;BME280;72082;52.650;8.116;2024-02-04T07:57:25;101549.75;;;8.02;100.00
29535;BME280;72082;52.650;8.116;2024-02-04T07:59:51;101561.63;;;8.01;100.00
29535;BME280;72082;52.650;8.116;2024-02-04T08:02:16;101545.50;;;8.02;100.00
29535;BME280;72082;52.650;8.116;2024-02-04T08:04:41;101554.03;;;8.04;100.00
29535;BME280;72082;52.650;8.116;2024-02-04T08:07:06;101555.78;;;8.07;100.00
29535;BME280;72082;52.650;8.116;2024-02-04T08:09:32;101555.00;;;8.09;100.00
29535;BME280;72082;52.650;8.116;2024-02-04T08:11:57;101557.56;;;8.11;100.00
29535;BME280;72082;52.650;8.116;2024-02-04T08:14:22;101547.41;;;8.13;100.00
29535;BME280;72082;52.650;8.116;2024-02-04T08:16:47;101572.13;;;8.15;100.00
29535;BME280;72082;52.650;8.116;2024-02-04T08:19:13;101565.34;;;8.17;100.00
29535;BME280;72082;52.650;8.116;2024-02-04T08:21:38;101584.09;;;8.18;100.00
29535;BME280;72082;52.650;8.116;2024-02-04T08:24:03;101583.28;;;8.20;100.00
29535;BME280;72082;52.650;8.116;2024-02-04T08:26:28;101573.09;;;8.22;100.00
29535;BME280;72082;52.650;8.116;2024-02-04T08:28:53;101570.59;;;8.23;100.00
29535;BME280;72082;52.650;8.116;2024-02-04T08:31:19;101586.78;;;8.25;100.00
29535;BME280;72082;52.650;8.116;2024-02-04T08:33:44;101574.91;;;8.26;100.00
29535;BME280;72082;52.650;8.116;2024-02-04T08:36:09;101568.97;;;8.27;100.00
29535;BME280;72082;52.650;8.116;2024-02-04T08:38:34;101575.88;;;8.31;100.00
29535;BME280;72082;52.650;8.116;2024-02-04T08:40:59;101581.81;;;8.30;100.00
29535;BME280;72082;52.650;8.116;2024-02-04T08:43:25;101567.38;;;8.32;100.00
29535;BME280;72082;52.650;8.116;2024-02-04T08:45:50;101569.97;;;8.33;100.00
29535;BME280;72082;52.650;8.116;2024-02-04T08:48:15;101562.31;;;8.35;100.00
29535;BME280;72082;52.650;8.116;2024-02-04T08:50:40;101552.16;;;8.36;100.00
29535;BME280;72082;52.650;8.116;2024-02-04T08:53:06;101544.50;;;8.38;100.00
29535;BME280;72082;52.650;8.116;2024-02-04T08:55:31;101542.00;;;8.39;100.00
29535;BME280;72082;52.650;8.116;2024-02-04T08:57:56;101550.50;;;8.40;100.00
29535;BME280;72082;52.650;8.116;2024-02-04T09:00:21;101540.31;;;8.41;100.00
29535;BME280;72082;52.650;8.116;2024-02-04T09:02:47;101553.13;;;8.43;100.00
29535;BME280;72082;52.650;8.116;2024-02-04T09:05:12;101553.97;;;8.43;100.00
29535;BME280;72082;52.650;8.116;2024-02-04T09:07:37;101548.88;;;8.45;100.00
29535;BME280;72082;52.650;8.116;2024-02-04T09:10:02;101553.97;;;8.43;100.00
29535;BME280;72082;52.650;8.116;2024-02-04T09:12:28;101561.66;;;8.45;100.00
29535;BME280;72082;52.650;8.116;2024-02-04T09:14:53;101540.41;;;8.46;100.00
29535;BME280;72082;52.650;8.116;2024-02-04T09:17:18;101540.41;;;8.46;100.00
29535;BME280;72082;52.650;8.116;2024-02-04T09:19:43;101547.25;;;8.48;100.00
29535;BME280;72082;52.650;8.116;2024-02-04T09:22:08;101543.06;;;8.52;100.00
29535;BME280;72082;52.650;8.116;2024-02-04T09:24:34;101549.94;;;8.54;100.00
29535;BME280;72082;52.650;8.116;2024-02-04T09:26:59;101555.09;;;8.57;100.00
29535;BME280;72082;52.650;8.116;2024-02-04T09:29:24;101562.78;;;8.60;100.00
29535;BME280;72082;52.650;8.116;2024-02-04T09:31:49;101558.63;;;8.64;100.00
29535;BME280;72082;52.650;8.116;2024-02-04T09:34:15;101556.09;;;8.65;100.00
29535;BME280;72082;52.650;8.116;2024-02-04T09:36:40;101555.28;;;8.68;100.00
29535;BME280;72082;52.650;8.116;2024-02-04T09:39:05;101551.03;;;8.68;100.00
29535;BME280;72082;52.650;8.116;2024-02-04T09:41:30;101545.06;;;8.68;100.00
29535;BME280;72082;52.650;8.116;2024-02-04T09:43:56;101540.81;;;8.68;100.00
29535;BME280;72082;52.650;8.116;2024-02-04T09:46:22;101535.75;;;8.70;100.00
29535;BME280;72082;52.650;8.116;2024-02-04T09:48:49;101545.16;;;8.74;100.00
29535;BME280;72082;52.650;8.116;2024-02-04T09:51:16;101544.41;;;8.80;100.00
29535;BME280;72082;52.650;8.116;2024-02-04T09:53:44;101550.44;;;8.85;100.00
29535;BME280;72082;52.650;8.116;2024-02-04T09:56:11;101553.06;;;8.88;100.00
29535;BME280;72082;52.650;8.116;2024-02-04T09:58:36;101542.03;;;8.89;100.00
29535;BME280;72082;52.650;8.116;2024-02-04T10:01:03;101542.03;;;8.92;100.00
29535;BME280;72082;52.650;8.116;2024-02-04T10:03:30;101544.66;;;8.95;100.00
29535;BME280;72082;52.650;8.116;2024-02-04T10:05:55;101526.88;;;9.02;100.00
29535;BME280;72082;52.650;8.116;2024-02-04T10:08:20;101532.09;;;9.08;100.00
29535;BME280;72082;52.650;8.116;2024-02-04T10:10:46;101544.94;;;9.13;100.00
29535;BME280;72082;52.650;8.116;2024-02-04T10:13:12;101558.59;;;9.13;100.00
29535;BME280;72082;52.650;8.116;2024-02-04T10:15:37;101545.81;;;9.13;100.00
29535;BME280;72082;52.650;8.116;2024-02-04T10:18:06;101542.44;;;9.14;100.00
29535;BME280;72082;52.650;8.116;2024-02-04T10:20:32;101544.19;;;9.17;100.00
29535;BME280;72082;52.650;8.116;2024-02-04T10:22:57;101556.16;;;9.21;100.00
29535;BME280;72082;52.650;8.116;2024-02-04T10:25:22;101569.00;;;9.25;100.00
29535;BME280;72082;52.650;8.116;2024-02-04T10:27:47;101552.00;;;9.27;100.00
29535;BME280;72082;52.650;8.116;2024-02-04T10:30:14;101546.91;;;9.29;100.00
29535;BME280;72082;52.650;8.116;2024-02-04T10:32:39;101542.66;;;9.29;100.00
29535;BME280;72082;52.650;8.116;2024-02-04T10:35:07;101543.56;;;9.33;100.00
29535;BME280;72082;52.650;8.116;2024-02-04T10:37:32;101565.72;;;9.32;100.00
29535;BME280;72082;52.650;8.116;2024-02-04T10:39:58;101558.91;;;9.33;100.00
29535;BME280;72082;52.650;8.116;2024-02-04T10:42:25;101548.69;;;9.35;100.00
29535;BME280;72082;52.650;8.116;2024-02-04T10:44:51;101555.50;;;9.34;100.00
29535;BME280;72082;52.650;8.116;2024-02-04T10:47:22;101526.50;;;9.33;100.00
29535;BME280;72082;52.650;8.116;2024-02-04T10:49:50;101527.41;;;9.36;100.00
29535;BME280;72082;52.650;8.116;2024-02-04T10:52:17;101529.13;;;9.37;100.00
29535;BME280;72082;52.650;8.116;2024-02-04T10:54:42;101537.69;;;9.40;100.00
29535;BME280;72082;52.650;8.116;2024-02-04T10:57:12;101545.47;;;9.46;100.00
29535;BME280;72082;52.650;8.116;2024-02-04T10:59:37;101530.19;;;9.52;100.00
29535;BME280;72082;52.650;8.116;2024-02-04T11:02:05;101531.16;;;9.59;100.00
29535;BME280;72082;52.650;8.116;2024-02-04T11:04:31;101528.63;;;9.63;100.00
29535;BME280;72082;52.650;8.116;2024-02-04T11:06:57;101542.34;;;9.67;100.00
29535;BME280;72082;52.650;8.116;2024-02-04T11:09:24;101528.72;;;9.69;100.00
29535;BME280;72082;52.650;8.116;2024-02-04T11:11:50;101538.19;;;9.75;100.00
29535;BME280;72082;52.650;8.116;2024-02-04T11:14:19;101535.69;;;9.79;100.00
29535;BME280;72082;52.650;8.116;2024-02-04T11:22:22;101516.41;;;10.12;100.00
29535;BME280;72082;52.650;8.116;2024-02-04T11:25:08;101519.13;;;10.19;100.00
29535;BME280;72082;52.650;8.116;2024-02-04T11:27:39;101520.88;;;10.25;100.00
29535;BME280;72082;52.650;8.116;2024-02-04T11:30:05;101510.66;;;10.26;100.00
29535;BME280;72082;52.650;8.116;2024-02-04T11:32:30;101505.53;;;10.26;100.00
29535;BME280;72082;52.650;8.116;2024-02-04T11:34:55;101516.66;;;10.27;100.00
29535;BME280;72082;52.650;8.116;2024-02-04T11:37:21;101514.88;;;10.23;100.00
29535;BME280;72082;52.650;8.116;2024-02-04T11:39:53;101509.72;;;10.20;100.00
29535;BME280;72082;52.650;8.116;2024-02-04T11:42:18;101505.38;;;10.14;100.00
29535;BME280;72082;52.650;8.116;2024-02-04T11:44:44;101500.19;;;10.10;100.00
29535;BME280;72082;52.650;8.116;2024-02-04T11:47:09;101493.34;;;10.06;100.00
29535;BME280;72082;52.650;8.116;2024-02-04T11:49:35;101535.09;;;10.02;100.00
29535;BME280;72082;52.650;8.116;2024-02-04T11:52:00;101481.28;;;9.99;100.00
29535;BME280;72082;52.650;8.116;2024-02-04T11:54:25;101471.91;;;9.98;100.00
29535;BME280;72082;52.650;8.116;2024-02-04T11:56:51;101480.41;;;9.97;100.00
29535;BME280;72082;52.650;8.116;2024-02-04T11:59:16;101484.66;;;9.94;100.00
29535;BME280;72082;52.650;8.116;2024-02-04T12:01:42;101485.50;;;9.93;100.00
29535;BME280;72082;52.650;8.116;2024-02-04T12:04:12;101465.88;;;9.92;100.00
29535;BME280;72082;52.650;8.116;2024-02-04T12:06:41;101477.81;;;9.90;100.00
29535;BME280;72082;52.650;8.116;2024-02-04T12:09:08;101474.34;;;9.88;100.00
29535;BME280;72082;52.650;8.116;2024-02-04T12:11:34;101453.03;;;9.88;100.00
29535;BME280;72082;52.650;8.116;2024-02-04T12:14:00;101464.97;;;9.89;100.00
29535;BME280;72082;52.650;8.116;2024-02-04T12:16:25;101457.31;;;9.90;100.00
29535;BME280;72082;52.650;8.116;2024-02-04T12:18:51;101458.16;;;9.91;100.00
29535;BME280;72082;52.650;8.116;2024-02-04T12:21:16;101461.59;;;9.91;100.00
29535;BME280;72082;52.650;8.116;2024-02-04T12:23:42;101451.34;;;9.91;100.00
29535;BME280;72082;52.650;8.116;2024-02-04T12:26:07;101469.25;;;9.90;100.00
29535;BME280;72082;52.650;8.116;2024-02-04T12:28:32;101447.91;;;9.89;100.00
29535;BME280;72082;52.650;8.116;2024-02-04T12:30:57;101454.72;;;9.89;100.00
29535;BME280;72082;52.650;8.116;2024-02-04T12:33:23;101464.16;;;9.90;100.00
29535;BME280;72082;52.650;8.116;2024-02-04T12:35:51;101457.31;;;9.90;100.00
29535;BME280;72082;52.650;8.116;2024-02-04T12:38:17;101459.03;;;9.91;100.00
29535;BME280;72082;52.650;8.116;2024-02-04T12:40:42;101467.56;;;9.90;100.00
29535;BME280;72082;52.650;8.116;2024-02-04T12:43:10;101443.63;;;9.88;100.00
29535;BME280;72082;52.650;8.116;2024-02-04T12:45:36;101455.59;;;9.88;100.00
29535;BME280;72082;52.650;8.116;2024-02-04T12:48:03;101447.88;;;9.86;100.00
29535;BME280;72082;52.650;8.116;2024-02-04T12:50:28;101449.56;;;9.86;100.00